Airfield :
LOGIN :

Register | Disclaimer

   EN    FR    IT 

 










Legend :    VFR   Marginal VFR   IFR   Intensive IFR   Very Intensive IFR
Visi :
Ceiling :
>= 8 km
>= 3000ft
5 to 8 km
1000 to 3000 ft
1500m to 5 km
500 to 1000 ft
800 to 1500m
200 to 500 ft
< 800m
< 200 ft
Symbols :   Thunderstorms  Fog  Heavy snow  Heavy precipitations  Wind > 20 kt
SIGMETs :     Misc.  Thunderstorms  Icing  Turbulence  Mountain Waves  Volcanic Ashes







- Airport Elevation : 256 ft
- IATA code : CFR
- Download approach charts


LFRK - Caen

CURRENT METAR :
  • 201630Z AUTO 27022KT 9000 -DZ BKN009 OVC013 11/11 Q1001 TEMPO 4000 RA BKN012 BECMG 27020G35KT

EXPIRED METARs :
  • 201600Z AUTO 27020KT 3400 -RA BR BKN009 OVC014 11/11 Q1001 TEMPO RA BKN012 BECMG 27020G35KT
  • 201530Z AUTO 27020KT 5000 -DZ BR OVC007 11/10 Q1001 TEMPO RA BKN012 BECMG 27020G35KT
  • 201500Z AUTO 27019KT 6000 -DZ BKN009 OVC013 11/10 Q1001 TEMPO 3000 RADZ BKN004 BECMG 27020G35KT
  • 201430Z AUTO 27018KT 9999 -RADZ OVC010 11/10 Q1001 TEMPO 3000 RADZ BKN004 BECMG 27020G35KT
  • 201400Z AUTO 28021KT 9999 BKN010 OVC016 11/10 Q1000 TEMPO 4000 RADZ BKN004 BECMG 27020G35KT

TAF TAF LFRK
Valid from the 20 at 15:00 until the 21 at 00:00 UTC


201400Z 2015/2024 27020G35KT 9999 BKN015
TEMPO 2015/2017 3000 RADZ BKN004
TEMPO 2017/2024 4000 RA BKN012
BECMG 2022/2024 29015KT
Met : +33 2 31 26 68 11
No reported NOTAMs for that airfield.
1 SIGMET reported for the Brest FIR (LFRR) :
 
Severe turbulence
LFRR SIGMET 4 VALID 201600/202000 LFPW
LFRR BREST FIR/UIR SEV TURB FCST WI N4930 W00515 - N5000 W00200 - N5000 W00015 - N4800 W00015 - N4800 W00315 - N4715 W00015 - N4630 W00015 - N4630 W00130 - N4545 W00145 - N4730 W00515 - N4930 W00515 SFC/FL060 STNR WKN=



MET'MAP, your aeronautical weather chart ! - Copyright ORBIFLY December 2007 - Disclaimer

ORBIFLY MET'MAP TEAM :

Programming & Development : Alexandra Zaïnal
Concept & Development : Baudouin d'Aumeries
Co-Development & Prog : Marc-Olivier Méhu
Technical & hardware support : Manuel Goepfert

Contact : metmap@orbifly.com




SOURCES & CREDITS :

   NOAA